sensor_id;sensor_type;location;lat;lon;timestamp;P1;durP1;ratioP1;P2;durP2;ratioP2
58697;SDS011;44475;53.206;-6.106;2022-10-17T00:02:04;9.07;;;3.25;;
58697;SDS011;44475;53.206;-6.106;2022-10-17T00:04:30;12.05;;;3.90;;
58697;SDS011;44475;53.206;-6.106;2022-10-17T00:06:56;12.25;;;3.83;;
58697;SDS011;44475;53.206;-6.106;2022-10-17T00:09:23;8.15;;;2.90;;
58697;SDS011;44475;53.206;-6.106;2022-10-17T00:11:49;10.18;;;3.17;;
58697;SDS011;44475;53.206;-6.106;2022-10-17T00:14:15;11.25;;;3.17;;
58697;SDS011;44475;53.206;-6.106;2022-10-17T00:16:42;8.68;;;3.40;;
58697;SDS011;44475;53.206;-6.106;2022-10-17T00:19:08;8.35;;;3.13;;
58697;SDS011;44475;53.206;-6.106;2022-10-17T00:21:34;9.50;;;3.10;;
58697;SDS011;44475;53.206;-6.106;2022-10-17T00:24:00;10.82;;;3.10;;
58697;SDS011;44475;53.206;-6.106;2022-10-17T00:26:27;10.52;;;3.28;;
58697;SDS011;44475;53.206;-6.106;2022-10-17T00:28:54;9.90;;;3.30;;
58697;SDS011;44475;53.206;-6.106;2022-10-17T00:31:20;8.65;;;3.47;;
58697;SDS011;44475;53.206;-6.106;2022-10-17T00:33:48;8.20;;;2.78;;
58697;SDS011;44475;53.206;-6.106;2022-10-17T00:36:16;9.10;;;3.13;;
58697;SDS011;44475;53.206;-6.106;2022-10-17T00:38:44;8.07;;;2.88;;
58697;SDS011;44475;53.206;-6.106;2022-10-17T00:41:13;8.40;;;2.95;;
58697;SDS011;44475;53.206;-6.106;2022-10-17T00:46:18;7.70;;;3.00;;
58697;SDS011;44475;53.206;-6.106;2022-10-17T00:48:47;6.28;;;2.70;;
58697;SDS011;44475;53.206;-6.106;2022-10-17T00:51:15;9.27;;;2.72;;
58697;SDS011;44475;53.206;-6.106;2022-10-17T00:53:43;7.13;;;2.50;;
58697;SDS011;44475;53.206;-6.106;2022-10-17T00:56:09;7.90;;;2.67;;
58697;SDS011;44475;53.206;-6.106;2022-10-17T00:58:36;8.05;;;2.63;;
58697;SDS011;44475;53.206;-6.106;2022-10-17T01:01:03;5.72;;;2.42;;
58697;SDS011;44475;53.206;-6.106;2022-10-17T01:03:30;5.88;;;2.20;;
58697;SDS011;44475;53.206;-6.106;2022-10-17T01:05:56;5.10;;;2.30;;
58697;SDS011;44475;53.206;-6.106;2022-10-17T01:08:22;7.43;;;2.60;;
58697;SDS011;44475;53.206;-6.106;2022-10-17T01:16:47;12.07;;;3.45;;
58697;SDS011;44475;53.206;-6.106;2022-10-17T01:21:58;5.38;;;2.55;;
58697;SDS011;44475;53.206;-6.106;2022-10-17T01:33:11;8.85;;;2.83;;
58697;SDS011;44475;53.206;-6.106;2022-10-17T01:36:01;7.63;;;2.42;;
58697;SDS011;44475;53.206;-6.106;2022-10-17T01:38:43;8.73;;;2.45;;
58697;SDS011;44475;53.206;-6.106;2022-10-17T01:41:15;6.38;;;2.13;;
58697;SDS011;44475;53.206;-6.106;2022-10-17T01:43:58;8.88;;;2.30;;
58697;SDS011;44475;53.206;-6.106;2022-10-17T01:46:51;9.40;;;2.38;;
58697;SDS011;44475;53.206;-6.106;2022-10-17T01:49:25;6.72;;;2.30;;
58697;SDS011;44475;53.206;-6.106;2022-10-17T01:51:56;8.82;;;2.13;;
58697;SDS011;44475;53.206;-6.106;2022-10-17T01:54:47;6.10;;;2.20;;
58697;SDS011;44475;53.206;-6.106;2022-10-17T01:57:23;5.18;;;2.20;;
58697;SDS011;44475;53.206;-6.106;2022-10-17T02:00:05;6.07;;;2.05;;
58697;SDS011;44475;53.206;-6.106;2022-10-17T02:02:39;7.85;;;2.10;;
58697;SDS011;44475;53.206;-6.106;2022-10-17T02:05:08;7.32;;;2.00;;
58697;SDS011;44475;53.206;-6.106;2022-10-17T02:07:35;5.75;;;2.38;;
58697;SDS011;44475;53.206;-6.106;2022-10-17T02:10:02;7.05;;;2.20;;
58697;SDS011;44475;53.206;-6.106;2022-10-17T02:12:41;8.25;;;2.20;;
58697;SDS011;44475;53.206;-6.106;2022-10-17T02:15:56;6.15;;;1.92;;
58697;SDS011;44475;53.206;-6.106;2022-10-17T02:18:46;6.25;;;1.80;;
58697;SDS011;44475;53.206;-6.106;2022-10-17T02:21:30;6.93;;;1.92;;
58697;SDS011;44475;53.206;-6.106;2022-10-17T02:26:52;7.05;;;2.28;;
58697;SDS011;44475;53.206;-6.106;2022-10-17T02:29:33;6.80;;;1.95;;
58697;SDS011;44475;53.206;-6.106;2022-10-17T02:32:08;6.68;;;2.08;;
58697;SDS011;44475;53.206;-6.106;2022-10-17T02:34:42;5.07;;;1.98;;
58697;SDS011;44475;53.206;-6.106;2022-10-17T02:37:12;7.45;;;2.10;;
58697;SDS011;44475;53.206;-6.106;2022-10-17T02:39:43;4.85;;;1.77;;
58697;SDS011;44475;53.206;-6.106;2022-10-17T02:42:11;6.15;;;2.03;;
58697;SDS011;44475;53.206;-6.106;2022-10-17T02:44:39;5.07;;;1.95;;
58697;SDS011;44475;53.206;-6.106;2022-10-17T02:47:15;6.10;;;2.10;;
58697;SDS011;44475;53.206;-6.106;2022-10-17T02:49:51;8.55;;;2.38;;
58697;SDS011;44475;53.206;-6.106;2022-10-17T02:57:45;4.18;;;1.70;;
58697;SDS011;44475;53.206;-6.106;2022-10-17T03:00:15;5.93;;;1.77;;
58697;SDS011;44475;53.206;-6.106;2022-10-17T03:02:46;5.93;;;1.70;;
58697;SDS011;44475;53.206;-6.106;2022-10-17T03:05:21;5.38;;;1.70;;
58697;SDS011;44475;53.206;-6.106;2022-10-17T03:07:49;7.60;;;2.00;;
58697;SDS011;44475;53.206;-6.106;2022-10-17T03:10:16;6.85;;;2.00;;
58697;SDS011;44475;53.206;-6.106;2022-10-17T03:12:42;5.20;;;1.92;;
58697;SDS011;44475;53.206;-6.106;2022-10-17T03:15:09;6.15;;;2.10;;
58697;SDS011;44475;53.206;-6.106;2022-10-17T03:17:36;5.22;;;2.00;;
58697;SDS011;44475;53.206;-6.106;2022-10-17T03:20:03;4.47;;;1.80;;
58697;SDS011;44475;53.206;-6.106;2022-10-17T03:22:30;7.60;;;2.08;;
58697;SDS011;44475;53.206;-6.106;2022-10-17T03:24:58;4.95;;;1.70;;
58697;SDS011;44475;53.206;-6.106;2022-10-17T03:27:24;6.40;;;1.80;;
58697;SDS011;44475;53.206;-6.106;2022-10-17T03:29:51;6.47;;;1.77;;
58697;SDS011;44475;53.206;-6.106;2022-10-17T03:32:18;4.85;;;1.90;;
58697;SDS011;44475;53.206;-6.106;2022-10-17T03:34:44;7.00;;;2.00;;
58697;SDS011;44475;53.206;-6.106;2022-10-17T03:39:59;4.10;;;1.60;;
58697;SDS011;44475;53.206;-6.106;2022-10-17T03:42:25;5.13;;;1.63;;
58697;SDS011;44475;53.206;-6.106;2022-10-17T03:44:52;8.43;;;2.10;;
58697;SDS011;44475;53.206;-6.106;2022-10-17T03:47:18;5.25;;;1.73;;
58697;SDS011;44475;53.206;-6.106;2022-10-17T03:49:45;5.45;;;2.13;;
58697;SDS011;44475;53.206;-6.106;2022-10-17T03:52:11;5.13;;;1.90;;
58697;SDS011;44475;53.206;-6.106;2022-10-17T03:54:39;5.50;;;1.95;;
58697;SDS011;44475;53.206;-6.106;2022-10-17T03:57:05;5.50;;;1.70;;
58697;SDS011;44475;53.206;-6.106;2022-10-17T03:59:32;6.85;;;1.80;;
58697;SDS011;44475;53.206;-6.106;2022-10-17T04:02:03;5.95;;;1.75;;
58697;SDS011;44475;53.206;-6.106;2022-10-17T04:04:29;3.92;;;1.60;;
58697;SDS011;44475;53.206;-6.106;2022-10-17T04:06:56;4.10;;;1.65;;
58697;SDS011;44475;53.206;-6.106;2022-10-17T04:09:23;5.32;;;2.00;;
58697;SDS011;44475;53.206;-6.106;2022-10-17T04:11:58;5.97;;;1.85;;
58697;SDS011;44475;53.206;-6.106;2022-10-17T04:14:24;6.78;;;2.00;;
58697;SDS011;44475;53.206;-6.106;2022-10-17T04:16:50;6.13;;;1.90;;
58697;SDS011;44475;53.206;-6.106;2022-10-17T04:19:19;5.28;;;1.77;;
58697;SDS011;44475;53.206;-6.106;2022-10-17T04:21:46;5.45;;;1.40;;
58697;SDS011;44475;53.206;-6.106;2022-10-17T04:24:13;4.35;;;1.70;;
58697;SDS011;44475;53.206;-6.106;2022-10-17T04:26:50;6.00;;;1.70;;
58697;SDS011;44475;53.206;-6.106;2022-10-17T04:29:17;4.25;;;1.65;;
58697;SDS011;44475;53.206;-6.106;2022-10-17T04:31:46;4.10;;;1.50;;
58697;SDS011;44475;53.206;-6.106;2022-10-17T04:34:36;5.63;;;1.80;;
58697;SDS011;44475;53.206;-6.106;2022-10-17T04:37:02;6.80;;;1.77;;
58697;SDS011;44475;53.206;-6.106;2022-10-17T04:39:29;4.65;;;1.77;;
58697;SDS011;44475;53.206;-6.106;2022-10-17T04:41:56;3.70;;;1.58;;
58697;SDS011;44475;53.206;-6.106;2022-10-17T04:44:23;7.40;;;1.50;;
58697;SDS011;44475;53.206;-6.106;2022-10-17T04:46:50;7.47;;;1.80;;
58697;SDS011;44475;53.206;-6.106;2022-10-17T04:49:18;5.05;;;1.80;;
58697;SDS011;44475;53.206;-6.106;2022-10-17T04:51:47;4.75;;;1.98;;
58697;SDS011;44475;53.206;-6.106;2022-10-17T04:54:22;5.65;;;1.70;;
58697;SDS011;44475;53.206;-6.106;2022-10-17T04:56:55;7.90;;;2.00;;
58697;SDS011;44475;53.206;-6.106;2022-10-17T04:59:21;4.32;;;1.50;;
58697;SDS011;44475;53.206;-6.106;2022-10-17T05:01:55;4.70;;;1.60;;
58697;SDS011;44475;53.206;-6.106;2022-10-17T05:04:21;4.10;;;1.50;;
58697;SDS011;44475;53.206;-6.106;2022-10-17T05:06:49;6.38;;;1.60;;
58697;SDS011;44475;53.206;-6.106;2022-10-17T05:09:24;4.15;;;1.58;;
58697;SDS011;44475;53.206;-6.106;2022-10-17T05:11:57;4.65;;;1.60;;
58697;SDS011;44475;53.206;-6.106;2022-10-17T05:14:24;6.65;;;1.58;;
58697;SDS011;44475;53.206;-6.106;2022-10-17T05:16:51;5.95;;;1.63;;
58697;SDS011;44475;53.206;-6.106;2022-10-17T05:19:18;5.75;;;1.50;;
58697;SDS011;44475;53.206;-6.106;2022-10-17T05:21:47;3.90;;;1.58;;
58697;SDS011;44475;53.206;-6.106;2022-10-17T05:24:14;4.13;;;1.63;;
58697;SDS011;44475;53.206;-6.106;2022-10-17T05:26:40;3.15;;;1.30;;
58697;SDS011;44475;53.206;-6.106;2022-10-17T05:29:07;3.60;;;1.35;;
58697;SDS011;44475;53.206;-6.106;2022-10-17T05:31:38;6.10;;;1.70;;
58697;SDS011;44475;53.206;-6.106;2022-10-17T05:34:06;4.68;;;1.73;;
58697;SDS011;44475;53.206;-6.106;2022-10-17T05:36:33;3.03;;;1.40;;
58697;SDS011;44475;53.206;-6.106;2022-10-17T05:39:01;4.47;;;1.60;;
58697;SDS011;44475;53.206;-6.106;2022-10-17T05:41:28;3.60;;;1.40;;
58697;SDS011;44475;53.206;-6.106;2022-10-17T05:43:55;2.38;;;1.30;;
58697;SDS011;44475;53.206;-6.106;2022-10-17T05:46:34;3.60;;;1.40;;
58697;SDS011;44475;53.206;-6.106;2022-10-17T05:49:01;4.45;;;1.80;;
58697;SDS011;44475;53.206;-6.106;2022-10-17T05:51:27;5.20;;;1.60;;
58697;SDS011;44475;53.206;-6.106;2022-10-17T05:53:55;5.13;;;1.70;;
58697;SDS011;44475;53.206;-6.106;2022-10-17T05:56:25;4.78;;;1.88;;
58697;SDS011;44475;53.206;-6.106;2022-10-17T05:58:52;4.68;;;1.50;;
58697;SDS011;44475;53.206;-6.106;2022-10-17T06:01:27;3.83;;;1.58;;
58697;SDS011;44475;53.206;-6.106;2022-10-17T06:03:54;2.53;;;1.30;;
58697;SDS011;44475;53.206;-6.106;2022-10-17T06:06:21;2.67;;;1.30;;
58697;SDS011;44475;53.206;-6.106;2022-10-17T06:08:49;2.65;;;1.33;;
58697;SDS011;44475;53.206;-6.106;2022-10-17T06:11:20;3.72;;;1.50;;
58697;SDS011;44475;53.206;-6.106;2022-10-17T06:13:47;3.30;;;1.30;;
58697;SDS011;44475;53.206;-6.106;2022-10-17T06:16:19;3.20;;;1.27;;
58697;SDS011;44475;53.206;-6.106;2022-10-17T06:18:45;4.65;;;1.50;;
58697;SDS011;44475;53.206;-6.106;2022-10-17T06:21:13;3.92;;;1.50;;
58697;SDS011;44475;53.206;-6.106;2022-10-17T06:23:45;3.45;;;1.42;;
58697;SDS011;44475;53.206;-6.106;2022-10-17T06:26:32;2.90;;;1.33;;
58697;SDS011;44475;53.206;-6.106;2022-10-17T06:29:17;3.83;;;1.42;;
58697;SDS011;44475;53.206;-6.106;2022-10-17T06:31:46;3.60;;;1.40;;
58697;SDS011;44475;53.206;-6.106;2022-10-17T06:34:13;2.30;;;1.30;;
58697;SDS011;44475;53.206;-6.106;2022-10-17T06:36:39;3.17;;;1.33;;
58697;SDS011;44475;53.206;-6.106;2022-10-17T06:39:07;5.07;;;1.55;;
58697;SDS011;44475;53.206;-6.106;2022-10-17T06:41:41;3.58;;;1.40;;
58697;SDS011;44475;53.206;-6.106;2022-10-17T06:44:08;2.30;;;1.40;;
58697;SDS011;44475;53.206;-6.106;2022-10-17T06:46:54;3.78;;;1.40;;
58697;SDS011;44475;53.206;-6.106;2022-10-17T06:49:21;2.58;;;1.30;;
58697;SDS011;44475;53.206;-6.106;2022-10-17T06:51:50;4.32;;;1.30;;
58697;SDS011;44475;53.206;-6.106;2022-10-17T06:54:21;3.78;;;1.38;;
58697;SDS011;44475;53.206;-6.106;2022-10-17T06:57:06;4.55;;;1.60;;
58697;SDS011;44475;53.206;-6.106;2022-10-17T06:59:50;3.95;;;1.33;;
58697;SDS011;44475;53.206;-6.106;2022-10-17T07:02:24;3.85;;;1.40;;
58697;SDS011;44475;53.206;-6.106;2022-10-17T07:04:52;4.30;;;1.30;;
58697;SDS011;44475;53.206;-6.106;2022-10-17T07:07:18;3.83;;;1.55;;
58697;SDS011;44475;53.206;-6.106;2022-10-17T07:09:44;3.13;;;1.30;;
58697;SDS011;44475;53.206;-6.106;2022-10-17T07:12:13;20.95;;;1.77;;
58697;SDS011;44475;53.206;-6.106;2022-10-17T07:14:43;4.47;;;1.23;;
58697;SDS011;44475;53.206;-6.106;2022-10-17T07:17:11;3.53;;;1.60;;
58697;SDS011;44475;53.206;-6.106;2022-10-17T07:19:38;5.97;;;1.48;;
58697;SDS011;44475;53.206;-6.106;2022-10-17T07:22:06;3.95;;;1.30;;
58697;SDS011;44475;53.206;-6.106;2022-10-17T07:24:35;2.65;;;1.40;;
58697;SDS011;44475;53.206;-6.106;2022-10-17T07:27:14;3.20;;;1.40;;
58697;SDS011;44475;53.206;-6.106;2022-10-17T07:29:40;4.70;;;1.45;;
58697;SDS011;44475;53.206;-6.106;2022-10-17T07:32:16;3.70;;;1.23;;
58697;SDS011;44475;53.206;-6.106;2022-10-17T07:34:43;4.28;;;1.30;;
58697;SDS011;44475;53.206;-6.106;2022-10-17T07:37:09;4.22;;;1.52;;
58697;SDS011;44475;53.206;-6.106;2022-10-17T07:39:38;6.03;;;1.30;;
58697;SDS011;44475;53.206;-6.106;2022-10-17T07:42:04;3.85;;;1.30;;
58697;SDS011;44475;53.206;-6.106;2022-10-17T07:44:33;4.10;;;1.23;;
58697;SDS011;44475;53.206;-6.106;2022-10-17T07:47:00;3.97;;;1.50;;
58697;SDS011;44475;53.206;-6.106;2022-10-17T07:49:27;3.55;;;1.38;;
58697;SDS011;44475;53.206;-6.106;2022-10-17T07:51:54;3.42;;;1.40;;
58697;SDS011;44475;53.206;-6.106;2022-10-17T07:54:20;5.13;;;1.40;;
58697;SDS011;44475;53.206;-6.106;2022-10-17T07:56:46;4.68;;;1.30;;
58697;SDS011;44475;53.206;-6.106;2022-10-17T07:59:17;3.22;;;1.40;;
58697;SDS011;44475;53.206;-6.106;2022-10-17T08:01:44;3.83;;;1.42;;
58697;SDS011;44475;53.206;-6.106;2022-10-17T08:04:10;3.30;;;1.40;;
58697;SDS011;44475;53.206;-6.106;2022-10-17T08:06:36;4.18;;;1.38;;
58697;SDS011;44475;53.206;-6.106;2022-10-17T08:09:03;2.05;;;1.20;;
58697;SDS011;44475;53.206;-6.106;2022-10-17T08:11:29;4.30;;;1.30;;
58697;SDS011;44475;53.206;-6.106;2022-10-17T08:13:56;2.90;;;1.27;;
58697;SDS011;44475;53.206;-6.106;2022-10-17T08:16:22;3.53;;;1.30;;
58697;SDS011;44475;53.206;-6.106;2022-10-17T08:18:48;2.45;;;1.25;;
58697;SDS011;44475;53.206;-6.106;2022-10-17T08:21:14;5.50;;;1.25;;
58697;SDS011;44475;53.206;-6.106;2022-10-17T08:23:41;4.53;;;1.20;;
58697;SDS011;44475;53.206;-6.106;2022-10-17T08:26:07;3.00;;;1.20;;
58697;SDS011;44475;53.206;-6.106;2022-10-17T08:28:35;3.58;;;1.48;;
58697;SDS011;44475;53.206;-6.106;2022-10-17T08:31:03;5.75;;;1.50;;
58697;SDS011;44475;53.206;-6.106;2022-10-17T08:33:31;2.00;;;1.13;;
58697;SDS011;44475;53.206;-6.106;2022-10-17T08:35:58;5.30;;;1.60;;
58697;SDS011;44475;53.206;-6.106;2022-10-17T08:38:27;3.10;;;1.33;;
58697;SDS011;44475;53.206;-6.106;2022-10-17T08:40:55;4.07;;;1.40;;
58697;SDS011;44475;53.206;-6.106;2022-10-17T08:46:15;3.90;;;1.38;;
58697;SDS011;44475;53.206;-6.106;2022-10-17T08:48:43;5.35;;;1.50;;
58697;SDS011;44475;53.206;-6.106;2022-10-17T08:51:16;2.85;;;1.33;;
58697;SDS011;44475;53.206;-6.106;2022-10-17T08:56:33;2.07;;;1.17;;
58697;SDS011;44475;53.206;-6.106;2022-10-17T08:59:11;3.88;;;1.40;;
58697;SDS011;44475;53.206;-6.106;2022-10-17T09:07:35;3.33;;;1.20;;
58697;SDS011;44475;53.206;-6.106;2022-10-17T09:18:21;3.72;;;1.10;;
58697;SDS011;44475;53.206;-6.106;2022-10-17T09:21:02;3.38;;;1.20;;
58697;SDS011;44475;53.206;-6.106;2022-10-17T09:23:45;3.80;;;1.40;;
58697;SDS011;44475;53.206;-6.106;2022-10-17T09:26:20;2.83;;;1.30;;
58697;SDS011;44475;53.206;-6.106;2022-10-17T09:28:58;3.80;;;1.10;;
58697;SDS011;44475;53.206;-6.106;2022-10-17T09:31:28;5.28;;;1.38;;
58697;SDS011;44475;53.206;-6.106;2022-10-17T09:34:07;3.97;;;1.30;;
58697;SDS011;44475;53.206;-6.106;2022-10-17T09:36:36;3.83;;;1.20;;
58697;SDS011;44475;53.206;-6.106;2022-10-17T09:39:05;3.17;;;1.30;;
58697;SDS011;44475;53.206;-6.106;2022-10-17T09:41:41;2.50;;;1.17;;
58697;SDS011;44475;53.206;-6.106;2022-10-17T09:46:51;3.40;;;1.30;;
58697;SDS011;44475;53.206;-6.106;2022-10-17T09:49:34;4.07;;;1.48;;
58697;SDS011;44475;53.206;-6.106;2022-10-17T09:52:16;2.70;;;1.20;;
58697;SDS011;44475;53.206;-6.106;2022-10-17T09:55:04;2.90;;;1.20;;
58697;SDS011;44475;53.206;-6.106;2022-10-17T09:57:51;1.67;;;1.00;;
58697;SDS011;44475;53.206;-6.106;2022-10-17T10:00:30;2.03;;;1.20;;
58697;SDS011;44475;53.206;-6.106;2022-10-17T10:05:35;3.17;;;1.20;;
58697;SDS011;44475;53.206;-6.106;2022-10-17T10:08:03;2.85;;;1.60;;
58697;SDS011;44475;53.206;-6.106;2022-10-17T10:10:29;3.35;;;1.30;;
58697;SDS011;44475;53.206;-6.106;2022-10-17T10:13:15;5.90;;;1.40;;
58697;SDS011;44475;53.206;-6.106;2022-10-17T10:15:48;1.80;;;1.00;;
58697;SDS011;44475;53.206;-6.106;2022-10-17T10:21:09;2.58;;;1.33;;
58697;SDS011;44475;53.206;-6.106;2022-10-17T10:23:41;2.58;;;1.52;;
58697;SDS011;44475;53.206;-6.106;2022-10-17T10:26:25;5.18;;;1.40;;
58697;SDS011;44475;53.206;-6.106;2022-10-17T10:29:00;2.88;;;1.30;;
58697;SDS011;44475;53.206;-6.106;2022-10-17T10:31:38;3.42;;;1.33;;
58697;SDS011;44475;53.206;-6.106;2022-10-17T10:37:51;2.90;;;1.35;;
58697;SDS011;44475;53.206;-6.106;2022-10-17T10:40:27;2.13;;;1.00;;
58697;SDS011;44475;53.206;-6.106;2022-10-17T10:42:58;1.38;;;1.05;;
58697;SDS011;44475;53.206;-6.106;2022-10-17T10:45:38;4.38;;;1.38;;
58697;SDS011;44475;53.206;-6.106;2022-10-17T10:50:55;2.50;;;1.23;;
58697;SDS011;44475;53.206;-6.106;2022-10-17T10:53:50;3.67;;;1.17;;
58697;SDS011;44475;53.206;-6.106;2022-10-17T10:59:13;2.22;;;1.20;;
58697;SDS011;44475;53.206;-6.106;2022-10-17T11:04:46;1.95;;;1.15;;
58697;SDS011;44475;53.206;-6.106;2022-10-17T11:07:33;3.75;;;1.17;;
58697;SDS011;44475;53.206;-6.106;2022-10-17T11:17:47;2.95;;;1.23;;
58697;SDS011;44475;53.206;-6.106;2022-10-17T11:23:07;3.75;;;1.13;;
58697;SDS011;44475;53.206;-6.106;2022-10-17T11:25:44;2.67;;;1.08;;
58697;SDS011;44475;53.206;-6.106;2022-10-17T11:28:13;2.60;;;1.20;;
58697;SDS011;44475;53.206;-6.106;2022-10-17T11:30:46;2.45;;;0.95;;
58697;SDS011;44475;53.206;-6.106;2022-10-17T11:34:03;2.63;;;1.20;;
58697;SDS011;44475;53.206;-6.106;2022-10-17T11:36:25;3.00;;;1.13;;
58697;SDS011;44475;53.206;-6.106;2022-10-17T11:38:58;1.05;;;1.00;;
58697;SDS011;44475;53.206;-6.106;2022-10-17T11:41:30;2.53;;;1.40;;
58697;SDS011;44475;53.206;-6.106;2022-10-17T11:46:56;4.65;;;1.10;;
58697;SDS011;44475;53.206;-6.106;2022-10-17T11:52:42;4.25;;;1.30;;
58697;SDS011;44475;53.206;-6.106;2022-10-17T11:55:19;2.45;;;1.10;;
58697;SDS011;44475;53.206;-6.106;2022-10-17T11:57:50;2.53;;;1.17;;
58697;SDS011;44475;53.206;-6.106;2022-10-17T12:08:47;2.75;;;1.10;;
58697;SDS011;44475;53.206;-6.106;2022-10-17T12:11:32;3.53;;;1.20;;
58697;SDS011;44475;53.206;-6.106;2022-10-17T12:20:03;3.35;;;1.40;;
58697;SDS011;44475;53.206;-6.106;2022-10-17T12:22:49;2.00;;;1.20;;
58697;SDS011;44475;53.206;-6.106;2022-10-17T12:25:19;2.88;;;1.10;;
58697;SDS011;44475;53.206;-6.106;2022-10-17T12:28:11;1.52;;;0.90;;
58697;SDS011;44475;53.206;-6.106;2022-10-17T12:33:55;2.65;;;1.10;;
58697;SDS011;44475;53.206;-6.106;2022-10-17T12:46:43;1.42;;;0.80;;
58697;SDS011;44475;53.206;-6.106;2022-10-17T12:49:35;2.83;;;1.15;;
58697;SDS011;44475;53.206;-6.106;2022-10-17T12:57:20;2.63;;;1.27;;
58697;SDS011;44475;53.206;-6.106;2022-10-17T13:00:16;3.28;;;1.17;;
58697;SDS011;44475;53.206;-6.106;2022-10-17T13:03:00;4.25;;;1.05;;
58697;SDS011;44475;53.206;-6.106;2022-10-17T13:05:37;3.65;;;1.10;;
58697;SDS011;44475;53.206;-6.106;2022-10-17T13:08:07;1.90;;;1.08;;
58697;SDS011;44475;53.206;-6.106;2022-10-17T13:10:44;2.47;;;1.10;;
58697;SDS011;44475;53.206;-6.106;2022-10-17T13:13:22;3.38;;;1.10;;
58697;SDS011;44475;53.206;-6.106;2022-10-17T13:16:03;2.80;;;1.00;;
58697;SDS011;44475;53.206;-6.106;2022-10-17T13:18:29;3.75;;;1.23;;
58697;SDS011;44475;53.206;-6.106;2022-10-17T13:21:06;5.40;;;1.20;;
58697;SDS011;44475;53.206;-6.106;2022-10-17T13:23:39;1.83;;;0.95;;
58697;SDS011;44475;53.206;-6.106;2022-10-17T13:28:37;4.43;;;1.25;;
58697;SDS011;44475;53.206;-6.106;2022-10-17T13:31:03;1.50;;;1.00;;
58697;SDS011;44475;53.206;-6.106;2022-10-17T13:33:35;2.05;;;1.10;;
58697;SDS011;44475;53.206;-6.106;2022-10-17T13:36:07;2.00;;;1.10;;
58697;SDS011;44475;53.206;-6.106;2022-10-17T13:38:40;2.38;;;1.05;;
58697;SDS011;44475;53.206;-6.106;2022-10-17T13:41:09;3.22;;;1.10;;
58697;SDS011;44475;53.206;-6.106;2022-10-17T13:43:40;5.00;;;1.10;;
58697;SDS011;44475;53.206;-6.106;2022-10-17T13:46:06;2.53;;;1.00;;
58697;SDS011;44475;53.206;-6.106;2022-10-17T13:48:41;3.63;;;1.10;;
58697;SDS011;44475;53.206;-6.106;2022-10-17T13:51:07;3.15;;;1.10;;
58697;SDS011;44475;53.206;-6.106;2022-10-17T13:53:36;2.22;;;1.00;;
58697;SDS011;44475;53.206;-6.106;2022-10-17T13:58:43;3.42;;;1.17;;
58697;SDS011;44475;53.206;-6.106;2022-10-17T14:01:15;2.60;;;1.00;;
58697;SDS011;44475;53.206;-6.106;2022-10-17T14:03:46;3.33;;;1.10;;
58697;SDS011;44475;53.206;-6.106;2022-10-17T14:08:45;3.95;;;1.30;;
58697;SDS011;44475;53.206;-6.106;2022-10-17T14:14:15;2.00;;;0.90;;
58697;SDS011;44475;53.206;-6.106;2022-10-17T14:16:48;5.28;;;1.27;;
58697;SDS011;44475;53.206;-6.106;2022-10-17T14:19:25;5.07;;;1.40;;
58697;SDS011;44475;53.206;-6.106;2022-10-17T14:30:43;6.10;;;1.40;;
58697;SDS011;44475;53.206;-6.106;2022-10-17T14:33:16;4.20;;;1.30;;
58697;SDS011;44475;53.206;-6.106;2022-10-17T14:35:53;4.30;;;1.13;;
58697;SDS011;44475;53.206;-6.106;2022-10-17T14:38:22;4.97;;;1.40;;
58697;SDS011;44475;53.206;-6.106;2022-10-17T14:40:50;9.27;;;1.60;;
58697;SDS011;44475;53.206;-6.106;2022-10-17T14:43:24;3.97;;;1.02;;
58697;SDS011;44475;53.206;-6.106;2022-10-17T14:54:43;3.75;;;1.30;;
58697;SDS011;44475;53.206;-6.106;2022-10-17T14:59:50;3.35;;;1.10;;
58697;SDS011;44475;53.206;-6.106;2022-10-17T15:02:17;2.90;;;1.02;;
58697;SDS011;44475;53.206;-6.106;2022-10-17T15:04:44;6.05;;;1.20;;
58697;SDS011;44475;53.206;-6.106;2022-10-17T15:07:13;3.15;;;1.08;;
58697;SDS011;44475;53.206;-6.106;2022-10-17T15:09:43;1.98;;;1.10;;
58697;SDS011;44475;53.206;-6.106;2022-10-17T15:12:12;2.00;;;1.00;;
58697;SDS011;44475;53.206;-6.106;2022-10-17T15:14:40;3.63;;;1.10;;
58697;SDS011;44475;53.206;-6.106;2022-10-17T15:17:13;2.50;;;1.10;;
58697;SDS011;44475;53.206;-6.106;2022-10-17T15:19:45;2.72;;;1.10;;
58697;SDS011;44475;53.206;-6.106;2022-10-17T15:22:11;6.25;;;1.35;;
58697;SDS011;44475;53.206;-6.106;2022-10-17T15:24:40;6.45;;;1.20;;
58697;SDS011;44475;53.206;-6.106;2022-10-17T15:27:12;4.43;;;1.33;;
58697;SDS011;44475;53.206;-6.106;2022-10-17T15:29:41;5.25;;;1.58;;
58697;SDS011;44475;53.206;-6.106;2022-10-17T15:32:07;5.03;;;1.38;;
58697;SDS011;44475;53.206;-6.106;2022-10-17T15:34:34;3.92;;;1.30;;
58697;SDS011;44475;53.206;-6.106;2022-10-17T15:37:01;3.72;;;1.30;;
58697;SDS011;44475;53.206;-6.106;2022-10-17T15:39:29;7.90;;;1.30;;
58697;SDS011;44475;53.206;-6.106;2022-10-17T15:41:56;3.78;;;1.40;;
58697;SDS011;44475;53.206;-6.106;2022-10-17T15:44:23;9.77;;;1.70;;
58697;SDS011;44475;53.206;-6.106;2022-10-17T15:46:50;6.80;;;1.52;;
58697;SDS011;44475;53.206;-6.106;2022-10-17T15:49:17;10.45;;;2.17;;
58697;SDS011;44475;53.206;-6.106;2022-10-17T15:51:44;5.85;;;1.50;;
58697;SDS011;44475;53.206;-6.106;2022-10-17T15:54:10;6.82;;;1.90;;
58697;SDS011;44475;53.206;-6.106;2022-10-17T15:56:37;9.20;;;2.00;;
58697;SDS011;44475;53.206;-6.106;2022-10-17T15:59:07;6.60;;;1.88;;
58697;SDS011;44475;53.206;-6.106;2022-10-17T16:01:37;5.90;;;1.70;;
58697;SDS011;44475;53.206;-6.106;2022-10-17T16:04:04;6.90;;;1.70;;
58697;SDS011;44475;53.206;-6.106;2022-10-17T16:06:33;5.75;;;1.70;;
58697;SDS011;44475;53.206;-6.106;2022-10-17T16:08:59;7.57;;;1.60;;
58697;SDS011;44475;53.206;-6.106;2022-10-17T16:13:58;5.40;;;1.98;;
58697;SDS011;44475;53.206;-6.106;2022-10-17T16:16:27;4.63;;;2.03;;
58697;SDS011;44475;53.206;-6.106;2022-10-17T16:18:54;3.55;;;1.60;;
58697;SDS011;44475;53.206;-6.106;2022-10-17T16:21:23;6.38;;;1.73;;
58697;SDS011;44475;53.206;-6.106;2022-10-17T16:23:52;5.13;;;1.58;;
58697;SDS011;44475;53.206;-6.106;2022-10-17T16:26:18;6.00;;;1.60;;
58697;SDS011;44475;53.206;-6.106;2022-10-17T16:28:45;5.10;;;1.60;;
58697;SDS011;44475;53.206;-6.106;2022-10-17T16:31:24;6.15;;;1.52;;
58697;SDS011;44475;53.206;-6.106;2022-10-17T16:33:54;5.88;;;1.92;;
58697;SDS011;44475;53.206;-6.106;2022-10-17T16:36:21;8.10;;;1.50;;
58697;SDS011;44475;53.206;-6.106;2022-10-17T16:38:48;4.45;;;1.67;;
58697;SDS011;44475;53.206;-6.106;2022-10-17T16:41:20;3.67;;;1.45;;
58697;SDS011;44475;53.206;-6.106;2022-10-17T16:43:51;4.40;;;1.58;;
58697;SDS011;44475;53.206;-6.106;2022-10-17T16:46:19;3.97;;;1.67;;
58697;SDS011;44475;53.206;-6.106;2022-10-17T16:48:46;5.90;;;1.50;;
58697;SDS011;44475;53.206;-6.106;2022-10-17T16:51:13;5.63;;;1.90;;
58697;SDS011;44475;53.206;-6.106;2022-10-17T16:53:42;11.65;;;1.80;;
58697;SDS011;44475;53.206;-6.106;2022-10-17T16:56:13;5.55;;;1.50;;
58697;SDS011;44475;53.206;-6.106;2022-10-17T16:58:42;6.65;;;2.58;;
58697;SDS011;44475;53.206;-6.106;2022-10-17T17:01:10;5.97;;;1.67;;
58697;SDS011;44475;53.206;-6.106;2022-10-17T17:03:39;6.53;;;1.30;;
58697;SDS011;44475;53.206;-6.106;2022-10-17T17:06:07;3.40;;;1.40;;
58697;SDS011;44475;53.206;-6.106;2022-10-17T17:08:38;3.63;;;1.50;;
58697;SDS011;44475;53.206;-6.106;2022-10-17T17:11:08;2.83;;;1.33;;
58697;SDS011;44475;53.206;-6.106;2022-10-17T17:13:35;4.13;;;1.50;;
58697;SDS011;44475;53.206;-6.106;2022-10-17T17:16:06;3.83;;;1.50;;
58697;SDS011;44475;53.206;-6.106;2022-10-17T17:18:43;3.35;;;1.33;;
58697;SDS011;44475;53.206;-6.106;2022-10-17T17:21:10;4.85;;;1.35;;
58697;SDS011;44475;53.206;-6.106;2022-10-17T17:23:38;4.20;;;1.50;;
58697;SDS011;44475;53.206;-6.106;2022-10-17T17:26:07;3.67;;;1.30;;
58697;SDS011;44475;53.206;-6.106;2022-10-17T17:28:38;5.10;;;1.60;;
58697;SDS011;44475;53.206;-6.106;2022-10-17T17:31:05;3.63;;;1.42;;